createdAt,value
2019-06-08T00:00:54.864Z,17.90
2019-06-08T00:03:23.483Z,17.70
2019-06-08T00:05:52.138Z,17.60
2019-06-08T00:08:21.027Z,17.60
2019-06-08T00:10:49.791Z,17.60
2019-06-08T00:13:19.776Z,17.50
2019-06-08T00:15:48.520Z,17.50
2019-06-08T00:18:17.410Z,17.40
2019-06-08T00:20:46.131Z,17.40
2019-06-08T00:23:15.735Z,17.40
2019-06-08T00:25:44.358Z,17.40
2019-06-08T00:28:14.138Z,17.40
2019-06-08T00:30:42.811Z,17.40
2019-06-08T00:33:11.580Z,17.30
2019-06-08T00:35:40.246Z,17.40
2019-06-08T00:38:08.918Z,17.40
2019-06-08T00:40:37.548Z,17.50
2019-06-08T00:43:06.214Z,17.60
2019-06-08T00:45:34.829Z,17.50
2019-06-08T00:48:03.534Z,17.40
2019-06-08T00:50:32.171Z,17.20
2019-06-08T00:53:00.877Z,17.10
2019-06-08T00:55:29.950Z,17.10
2019-06-08T00:57:58.710Z,17.10
2019-06-08T01:00:27.437Z,17.10
2019-06-08T01:02:56.097Z,17.00
2019-06-08T01:05:25.997Z,16.90
2019-06-08T01:07:54.675Z,16.90
2019-06-08T01:10:25.413Z,16.90
2019-06-08T01:12:54.316Z,16.90
2019-06-08T01:15:29.141Z,16.90
2019-06-08T01:18:03.503Z,17.00
2019-06-08T01:20:25.453Z,17.00
2019-06-08T01:22:54.295Z,16.90
2019-06-08T01:25:23.704Z,16.80
2019-06-08T01:27:52.551Z,16.80
2019-06-08T01:30:22.186Z,16.70
2019-06-08T01:32:51.048Z,16.80
2019-06-08T01:35:20.803Z,16.70
2019-06-08T01:37:49.731Z,16.70
2019-06-08T01:40:18.540Z,16.70
2019-06-08T01:42:47.285Z,16.70
2019-06-08T01:45:18.487Z,16.60
2019-06-08T01:47:47.134Z,16.50
2019-06-08T01:50:15.758Z,16.40
2019-06-08T01:52:44.387Z,16.40
2019-06-08T01:55:13.432Z,16.40
2019-06-08T01:57:42.065Z,16.40
2019-06-08T02:00:29.265Z,16.40
2019-06-08T02:02:41.371Z,16.40
2019-06-08T02:05:10.173Z,16.40
2019-06-08T02:07:38.865Z,16.20
2019-06-08T02:10:08.740Z,16.20
2019-06-08T02:12:37.524Z,16.20
2019-06-08T02:15:07.096Z,16.10
2019-06-08T02:17:36.727Z,16.10
2019-06-08T02:20:07.884Z,16.00
2019-06-08T02:22:36.899Z,16.00
2019-06-08T02:25:06.488Z,16.10
2019-06-08T02:27:35.789Z,16.00
2019-06-08T02:30:10.393Z,16.00
2019-06-08T02:32:40.465Z,16.00
2019-06-08T02:35:10.087Z,16.00
2019-06-08T02:37:39.891Z,16.00
2019-06-08T02:40:09.595Z,16.00
2019-06-08T02:42:40.032Z,16.00
2019-06-08T02:45:09.348Z,16.10
2019-06-08T02:47:38.002Z,16.00
2019-06-08T02:50:08.003Z,16.10
2019-06-08T02:52:40.582Z,16.10
2019-06-08T02:55:09.706Z,16.00
2019-06-08T02:57:40.277Z,16.00
2019-06-08T03:00:11.534Z,16.00
2019-06-08T03:02:44.592Z,16.00
2019-06-08T03:05:13.791Z,15.90
2019-06-08T03:07:45.612Z,15.90
2019-06-08T03:10:15.243Z,15.90
2019-06-08T03:12:45.831Z,15.90
2019-06-08T03:15:17.624Z,15.80
2019-06-08T03:17:46.230Z,15.80
2019-06-08T03:20:15.134Z,15.80
2019-06-08T03:22:44.175Z,15.90
2019-06-08T03:25:13.258Z,15.90
2019-06-08T03:27:43.134Z,15.90
2019-06-08T03:30:18.984Z,15.70
2019-06-08T03:32:51.529Z,15.80
2019-06-08T03:35:13.789Z,15.80
2019-06-08T03:37:44.313Z,15.70
2019-06-08T03:40:13.074Z,15.70
2019-06-08T03:42:41.735Z,15.70
2019-06-08T03:45:10.803Z,15.60
2019-06-08T03:47:41.327Z,15.60
2019-06-08T03:50:10.095Z,15.60
2019-06-08T03:52:39.969Z,15.50
2019-06-08T03:55:09.198Z,15.60
2019-06-08T03:57:38.286Z,15.40
2019-06-08T04:00:13.268Z,15.50
2019-06-08T04:02:41.778Z,15.50
2019-06-08T04:05:10.347Z,15.50
2019-06-08T04:07:39.881Z,15.50
2019-06-08T04:10:08.876Z,15.60
2019-06-08T04:12:37.754Z,15.60
2019-06-08T04:15:08.179Z,15.60
2019-06-08T04:17:37.916Z,15.60
2019-06-08T04:20:11.622Z,15.60
2019-06-08T04:22:41.818Z,15.60
2019-06-08T04:25:10.049Z,15.70
2019-06-08T04:27:40.262Z,15.70
2019-06-08T04:30:09.978Z,15.70
2019-06-08T04:32:38.673Z,15.60
2019-06-08T04:35:08.374Z,15.70
2019-06-08T04:37:38.221Z,15.70
2019-06-08T04:40:08.569Z,15.70
2019-06-08T04:42:37.268Z,15.70
2019-06-08T04:45:08.631Z,15.70
2019-06-08T04:47:38.440Z,15.70
2019-06-08T04:50:21.748Z,15.70
2019-06-08T04:52:39.059Z,15.70
2019-06-08T04:55:08.353Z,15.70
2019-06-08T04:57:39.215Z,15.70
2019-06-08T05:00:13.111Z,15.80
2019-06-08T05:02:39.766Z,15.70
2019-06-08T05:05:09.658Z,15.80
2019-06-08T05:07:39.275Z,15.80
2019-06-08T05:10:09.760Z,15.80
2019-06-08T05:12:39.182Z,15.90
2019-06-08T05:15:08.685Z,15.90
2019-06-08T05:17:37.338Z,15.80
2019-06-08T05:20:07.048Z,15.90
2019-06-08T05:22:35.736Z,15.90
2019-06-08T05:25:05.652Z,15.90
2019-06-08T05:27:34.263Z,15.90
2019-06-08T05:30:08.341Z,16.00
2019-06-08T05:32:33.230Z,16.00
2019-06-08T05:35:01.887Z,16.00
2019-06-08T05:37:30.532Z,16.00
2019-06-08T05:39:59.184Z,16.10
2019-06-08T05:42:27.835Z,16.10
2019-06-08T05:44:56.555Z,16.10
2019-06-08T05:47:25.299Z,16.20
2019-06-08T05:49:53.906Z,16.30
2019-06-08T05:52:22.542Z,16.30
2019-06-08T05:54:51.198Z,16.30
2019-06-08T05:57:19.886Z,16.30
2019-06-08T05:59:48.619Z,16.30
2019-06-08T06:02:17.262Z,16.30
2019-06-08T06:04:46.389Z,16.40
2019-06-08T06:07:15.054Z,16.30
2019-06-08T06:09:45.138Z,16.30
2019-06-08T06:12:13.895Z,16.30
2019-06-08T06:14:42.806Z,16.40
2019-06-08T06:17:11.690Z,16.60
2019-06-08T06:19:41.052Z,16.70
2019-06-08T06:22:09.880Z,16.80
2019-06-08T06:24:38.508Z,16.80
2019-06-08T06:27:07.135Z,16.70
2019-06-08T06:29:35.782Z,16.90
2019-06-08T06:32:04.956Z,17.00
2019-06-08T06:34:33.646Z,17.20
2019-06-08T06:37:02.337Z,17.30
2019-06-08T06:39:30.983Z,17.40
2019-06-08T06:41:59.632Z,17.50
2019-06-08T06:44:28.378Z,17.60
2019-06-08T06:46:57.002Z,17.70
2019-06-08T06:49:25.750Z,17.90
2019-06-08T06:51:54.396Z,17.90
2019-06-08T06:54:23.071Z,18.00
2019-06-08T06:56:51.926Z,18.00
2019-06-08T06:59:20.682Z,18.20
2019-06-08T07:01:52.785Z,18.20
2019-06-08T07:04:19.838Z,18.30
2019-06-08T07:06:48.627Z,18.20
2019-06-08T07:09:17.240Z,18.40
2019-06-08T07:11:46.864Z,18.70
2019-06-08T07:14:15.632Z,18.50
2019-06-08T07:16:44.262Z,18.50
2019-06-08T07:19:12.917Z,18.40
2019-06-08T07:21:42.287Z,18.60
2019-06-08T07:24:11.019Z,18.80
2019-06-08T07:26:39.678Z,18.70
2019-06-08T07:29:08.304Z,18.80
2019-06-08T07:31:36.965Z,18.80
2019-06-08T07:34:05.588Z,18.80
2019-06-08T07:36:34.260Z,18.70
2019-06-08T07:39:02.897Z,18.60
2019-06-08T07:41:31.546Z,18.70
2019-06-08T07:44:00.211Z,18.80
2019-06-08T07:46:28.936Z,18.90
2019-06-08T07:48:58.632Z,18.70
2019-06-08T07:51:27.533Z,18.70
2019-06-08T07:53:56.178Z,18.80
2019-06-08T07:56:24.992Z,18.80
2019-06-08T07:58:54.921Z,18.80
2019-06-08T08:01:35.772Z,18.70
2019-06-08T08:03:54.220Z,18.80
2019-06-08T08:06:23.044Z,18.70
2019-06-08T08:08:52.624Z,18.90
2019-06-08T08:11:21.342Z,18.90
2019-06-08T08:13:51.430Z,19.00
2019-06-08T08:16:20.258Z,18.90
2019-06-08T08:18:51.589Z,18.80
2019-06-08T08:21:25.936Z,18.70
2019-06-08T08:23:51.675Z,18.80
2019-06-08T08:26:20.446Z,19.10
2019-06-08T08:28:51.753Z,19.40
2019-06-08T08:31:19.438Z,19.90
2019-06-08T08:33:49.866Z,19.90
2019-06-08T08:36:21.024Z,20.10
2019-06-08T08:38:50.182Z,20.20
2019-06-08T08:41:19.077Z,19.90
2019-06-08T08:43:48.523Z,19.50
2019-06-08T08:46:18.000Z,19.30
2019-06-08T08:48:48.641Z,19.30
2019-06-08T08:51:17.985Z,19.70
2019-06-08T08:53:48.147Z,20.10
2019-06-08T08:56:18.090Z,20.00
2019-06-08T08:58:47.795Z,19.90
2019-06-08T09:01:20.233Z,20.00
2019-06-08T09:03:48.207Z,19.90
2019-06-08T09:06:18.153Z,20.10
2019-06-08T09:08:48.506Z,20.00
2019-06-08T09:11:17.581Z,19.80
2019-06-08T09:13:48.673Z,19.80
2019-06-08T09:16:17.700Z,20.00
2019-06-08T09:18:48.003Z,19.90
2019-06-08T09:21:18.672Z,19.70
2019-06-08T09:23:48.631Z,19.70
2019-06-08T09:26:17.727Z,20.00
2019-06-08T09:28:46.511Z,20.20
2019-06-08T09:31:15.515Z,20.20
2019-06-08T09:33:53.290Z,20.20
2019-06-08T09:36:14.537Z,20.20
2019-06-08T09:38:43.215Z,20.40
2019-06-08T09:41:11.891Z,20.30
2019-06-08T09:43:40.523Z,20.30
2019-06-08T09:46:09.547Z,20.10
2019-06-08T09:48:38.344Z,20.20
2019-06-08T09:51:09.410Z,20.50
2019-06-08T09:53:41.205Z,20.20
2019-06-08T09:56:09.725Z,20.40
2019-06-08T09:58:39.095Z,20.60
2019-06-08T10:01:09.110Z,21.10
2019-06-08T10:03:39.192Z,21.50
2019-06-08T10:06:11.585Z,21.30
2019-06-08T10:08:38.866Z,21.10
2019-06-08T10:11:09.626Z,21.20
2019-06-08T10:13:39.120Z,21.50
2019-06-08T10:16:10.330Z,21.30
2019-06-08T10:18:38.764Z,21.30
2019-06-08T10:21:09.656Z,21.60
2019-06-08T10:23:38.535Z,21.80
2019-06-08T10:26:08.206Z,21.90
2019-06-08T10:28:38.865Z,21.60
2019-06-08T10:31:07.376Z,21.00
2019-06-08T10:33:40.252Z,20.90
2019-06-08T10:36:12.348Z,20.90
2019-06-08T10:38:38.398Z,20.80
2019-06-08T10:41:15.736Z,20.70
2019-06-08T10:43:38.560Z,20.50
2019-06-08T10:46:15.622Z,20.00
2019-06-08T10:48:37.992Z,19.80
2019-06-08T10:51:10.466Z,20.00
2019-06-08T10:53:46.498Z,20.40
2019-06-08T10:56:10.227Z,20.30
2019-06-08T10:58:37.947Z,20.70
2019-06-08T11:01:10.705Z,20.50
2019-06-08T11:03:38.847Z,20.10
2019-06-08T11:06:12.369Z,20.20
2019-06-08T11:08:39.004Z,21.00
2019-06-08T11:11:11.580Z,20.60
2019-06-08T11:13:38.253Z,20.80
2019-06-08T11:16:12.655Z,21.50
2019-06-08T11:18:37.296Z,21.50
2019-06-08T11:21:07.516Z,21.40
2019-06-08T11:23:38.474Z,21.20
2019-06-08T11:26:13.724Z,21.10
2019-06-08T11:28:38.287Z,21.10
2019-06-08T11:31:13.250Z,21.10
2019-06-08T11:33:38.994Z,21.30
2019-06-08T11:36:12.168Z,21.40
2019-06-08T11:38:38.269Z,21.40
2019-06-08T11:41:10.295Z,21.10
2019-06-08T11:43:38.141Z,21.20
2019-06-08T11:46:08.345Z,21.10
2019-06-08T11:48:41.012Z,21.00
2019-06-08T11:51:10.557Z,20.80
2019-06-08T11:53:38.454Z,20.60
2019-06-08T11:56:09.610Z,20.40
2019-06-08T11:58:39.403Z,20.50
2019-06-08T12:01:12.865Z,20.50
2019-06-08T12:03:39.703Z,20.50
2019-06-08T12:06:10.416Z,20.40
2019-06-08T12:08:38.784Z,20.40
2019-06-08T12:11:10.662Z,20.20
2019-06-08T12:13:38.029Z,20.10
2019-06-08T12:16:10.553Z,20.00
2019-06-08T12:18:40.130Z,20.10
2019-06-08T12:21:08.655Z,20.00
2019-06-08T12:23:37.724Z,20.00
2019-06-08T12:26:06.375Z,20.50
2019-06-08T12:28:34.988Z,20.60
2019-06-08T12:31:04.674Z,20.40
2019-06-08T12:33:33.399Z,20.40
2019-06-08T12:36:02.082Z,20.50
2019-06-08T12:38:34.253Z,20.50
2019-06-08T12:41:01.072Z,20.50
2019-06-08T12:43:29.683Z,20.10
2019-06-08T12:45:58.438Z,20.20
2019-06-08T12:48:28.728Z,20.30
2019-06-08T12:50:57.532Z,20.20
2019-06-08T12:53:28.128Z,20.10
2019-06-08T12:55:57.898Z,20.20
2019-06-08T12:58:27.589Z,20.30
2019-06-08T13:00:57.975Z,20.40
2019-06-08T13:03:27.740Z,20.60
2019-06-08T13:05:57.532Z,20.70
2019-06-08T13:08:28.518Z,20.80
2019-06-08T13:10:57.494Z,20.70
2019-06-08T13:13:28.253Z,20.60
2019-06-08T13:15:58.018Z,20.70
2019-06-08T13:18:26.766Z,21.00
2019-06-08T13:20:55.471Z,21.10
2019-06-08T13:23:24.146Z,20.90
2019-06-08T13:25:52.779Z,20.90
2019-06-08T13:28:25.047Z,20.50
2019-06-08T13:30:51.718Z,20.50
2019-06-08T13:33:20.372Z,20.60
2019-06-08T13:35:49.046Z,20.70
2019-06-08T13:38:21.295Z,20.50
2019-06-08T13:40:49.516Z,20.30
2019-06-08T13:43:20.113Z,20.40
2019-06-08T13:45:51.336Z,20.40
2019-06-08T13:48:20.535Z,20.40
2019-06-08T13:50:49.916Z,20.20
2019-06-08T13:53:26.339Z,20.20
2019-06-08T13:55:56.385Z,20.20
2019-06-08T13:58:26.540Z,20.20
2019-06-08T14:00:50.346Z,20.50
2019-06-08T14:03:21.284Z,20.60
2019-06-08T14:05:49.307Z,20.60
2019-06-08T14:08:20.511Z,20.50
2019-06-08T14:10:48.374Z,20.50
2019-06-08T14:13:19.748Z,20.30
2019-06-08T14:15:48.788Z,20.20
2019-06-08T14:18:21.294Z,20.20
2019-06-08T14:20:48.459Z,20.10
2019-06-08T14:23:19.692Z,20.20
2019-06-08T14:25:56.234Z,20.20
2019-06-08T14:28:19.771Z,20.10
2019-06-08T14:30:48.094Z,20.10
2019-06-08T14:33:21.714Z,20.30
2019-06-08T14:35:47.811Z,20.40
2019-06-08T14:38:19.459Z,20.30
2019-06-08T14:40:47.504Z,20.30
2019-06-08T14:43:17.741Z,20.30
2019-06-08T14:45:46.587Z,20.40
2019-06-08T14:48:15.377Z,20.40
2019-06-08T14:50:44.031Z,20.40
2019-06-08T14:53:12.702Z,20.40
2019-06-08T14:55:41.318Z,20.30
2019-06-08T14:58:09.979Z,20.60
2019-06-08T15:00:38.675Z,21.00
2019-06-08T15:03:07.792Z,21.10
2019-06-08T15:05:36.660Z,21.30
2019-06-08T15:08:08.173Z,21.20
2019-06-08T15:10:38.288Z,21.10
2019-06-08T15:13:07.717Z,21.00
2019-06-08T15:15:38.100Z,21.00
2019-06-08T15:18:10.582Z,21.10
2019-06-08T15:20:37.970Z,21.00
2019-06-08T15:23:08.271Z,21.00
2019-06-08T15:25:38.715Z,20.90
2019-06-08T15:28:08.201Z,20.90
2019-06-08T15:30:38.023Z,21.20
2019-06-08T15:33:06.980Z,21.50
2019-06-08T15:35:37.672Z,21.40
2019-06-08T15:38:08.139Z,21.10
2019-06-08T15:40:37.875Z,21.10
2019-06-08T15:43:08.674Z,21.10
2019-06-08T15:45:36.982Z,21.10
2019-06-08T15:48:07.798Z,21.00
2019-06-08T15:50:37.869Z,21.10
2019-06-08T15:53:08.428Z,21.30
2019-06-08T15:55:37.987Z,21.40
2019-06-08T15:58:08.956Z,21.20
2019-06-08T16:00:37.376Z,21.20
2019-06-08T16:03:05.996Z,21.30
2019-06-08T16:05:34.656Z,21.40
2019-06-08T16:08:03.359Z,21.50
2019-06-08T16:10:32.301Z,21.50
2019-06-08T16:13:01.154Z,21.60
2019-06-08T16:15:30.918Z,21.60
2019-06-08T16:17:59.804Z,21.80
2019-06-08T16:20:29.475Z,21.70
2019-06-08T16:22:58.307Z,21.70
2019-06-08T16:25:27.557Z,21.60
2019-06-08T16:27:59.870Z,21.60
2019-06-08T16:30:27.197Z,21.60
2019-06-08T16:32:55.827Z,21.60
2019-06-08T16:35:24.606Z,21.70
2019-06-08T16:37:53.263Z,21.70
2019-06-08T16:40:22.085Z,21.40
2019-06-08T16:42:50.812Z,21.30
2019-06-08T16:45:19.544Z,21.10
2019-06-08T16:47:48.188Z,21.00
2019-06-08T16:50:24.557Z,20.80
2019-06-08T16:52:47.509Z,20.80
2019-06-08T16:55:16.337Z,20.90
2019-06-08T16:57:44.962Z,20.80
2019-06-08T17:00:31.501Z,20.80
2019-06-08T17:02:44.582Z,20.90
2019-06-08T17:05:13.484Z,21.00
2019-06-08T17:07:42.167Z,21.00
2019-06-08T17:10:11.831Z,21.00
2019-06-08T17:12:40.477Z,21.10
2019-06-08T17:15:09.352Z,21.10
2019-06-08T17:17:38.601Z,21.10
2019-06-08T17:20:07.935Z,21.10
2019-06-08T17:22:36.897Z,21.00
2019-06-08T17:25:08.392Z,21.00
2019-06-08T17:27:37.256Z,20.90
2019-06-08T17:30:08.889Z,21.00
2019-06-08T17:32:38.511Z,20.90
2019-06-08T17:35:08.196Z,20.90
2019-06-08T17:37:38.092Z,20.70
2019-06-08T17:40:07.839Z,20.80
2019-06-08T17:42:37.634Z,20.80
2019-06-08T17:45:09.768Z,20.70
2019-06-08T17:47:38.581Z,20.70
2019-06-08T17:50:08.146Z,20.60
2019-06-08T17:52:37.036Z,20.50
2019-06-08T17:55:06.658Z,20.30
2019-06-08T17:57:47.383Z,20.20
2019-06-08T18:00:09.919Z,20.10
2019-06-08T18:02:42.040Z,20.10
2019-06-08T18:05:09.679Z,20.00
2019-06-08T18:07:40.204Z,20.10
2019-06-08T18:10:09.683Z,20.10
2019-06-08T18:12:41.062Z,20.00
2019-06-08T18:15:09.567Z,20.10
2019-06-08T18:17:42.030Z,20.30
2019-06-08T18:20:12.988Z,20.40
2019-06-08T18:22:44.408Z,20.50
2019-06-08T18:25:12.187Z,20.50
2019-06-08T18:27:43.577Z,20.40
2019-06-08T18:30:12.590Z,20.40
2019-06-08T18:32:42.460Z,20.40
2019-06-08T18:35:12.231Z,20.20
2019-06-08T18:37:41.388Z,20.20
2019-06-08T18:40:12.414Z,20.30
2019-06-08T18:42:42.638Z,20.20
2019-06-08T18:45:12.191Z,20.10
2019-06-08T18:47:41.986Z,19.90
2019-06-08T18:50:11.567Z,19.30
2019-06-08T18:52:42.202Z,18.80
2019-06-08T18:55:11.046Z,18.30
2019-06-08T18:57:41.096Z,18.20
2019-06-08T19:00:11.700Z,18.10
2019-06-08T19:02:43.292Z,17.80
2019-06-08T19:05:11.071Z,17.70
2019-06-08T19:07:41.246Z,17.60
2019-06-08T19:10:10.068Z,17.50
2019-06-08T19:12:41.122Z,17.50
2019-06-08T19:15:11.520Z,17.30
2019-06-08T19:17:45.776Z,17.30
2019-06-08T19:20:09.721Z,17.50
2019-06-08T19:22:42.951Z,17.70
2019-06-08T19:25:08.814Z,17.70
2019-06-08T19:27:43.913Z,17.60
2019-06-08T19:30:08.015Z,17.50
2019-06-08T19:32:38.920Z,17.30
2019-06-08T19:35:07.379Z,17.30
2019-06-08T19:37:36.083Z,17.30
2019-06-08T19:40:07.566Z,17.30
2019-06-08T19:42:44.670Z,17.50
2019-06-08T19:45:08.711Z,17.60
2019-06-08T19:47:38.160Z,17.50
2019-06-08T19:50:07.949Z,17.60
2019-06-08T19:52:41.069Z,17.60
2019-06-08T19:55:08.155Z,17.60
2019-06-08T19:57:37.046Z,17.60
2019-06-08T20:00:09.136Z,17.30
2019-06-08T20:02:37.796Z,17.20
2019-06-08T20:05:07.673Z,17.10
2019-06-08T20:07:37.875Z,17.10
2019-06-08T20:10:08.287Z,17.00
2019-06-08T20:12:37.650Z,17.00
2019-06-08T20:15:08.708Z,16.90
2019-06-08T20:17:37.445Z,16.90
2019-06-08T20:20:10.688Z,17.00
2019-06-08T20:22:37.921Z,17.10
2019-06-08T20:25:10.442Z,17.30
2019-06-08T20:27:37.555Z,17.50
2019-06-08T20:30:09.550Z,17.50
2019-06-08T20:32:37.967Z,17.40
2019-06-08T20:35:08.118Z,17.60
2019-06-08T20:37:37.659Z,17.70
2019-06-08T20:40:13.614Z,17.70
2019-06-08T20:42:38.022Z,17.70
2019-06-08T20:45:08.157Z,17.80
2019-06-08T20:47:39.086Z,17.80
2019-06-08T20:50:07.750Z,17.60
2019-06-08T20:52:37.812Z,17.60
2019-06-08T20:55:07.943Z,17.50
2019-06-08T20:57:36.603Z,17.50
2019-06-08T21:00:11.922Z,17.40
2019-06-08T21:02:39.783Z,17.50
2019-06-08T21:05:08.631Z,17.60
2019-06-08T21:07:37.318Z,17.70
2019-06-08T21:10:08.538Z,17.80
2019-06-08T21:12:37.913Z,17.60
2019-06-08T21:15:07.847Z,17.60
2019-06-08T21:17:38.439Z,17.40
2019-06-08T21:20:08.532Z,17.40
2019-06-08T21:22:37.592Z,17.20
2019-06-08T21:25:08.729Z,17.00
2019-06-08T21:27:38.548Z,17.00
2019-06-08T21:30:19.790Z,16.90
2019-06-08T21:32:38.663Z,16.90
2019-06-08T21:35:07.657Z,17.00
2019-06-08T21:37:37.741Z,17.20
2019-06-08T21:40:09.231Z,17.30
2019-06-08T21:42:37.858Z,17.00
2019-06-08T21:45:09.949Z,16.80
2019-06-08T21:47:38.596Z,16.70
2019-06-08T21:50:08.133Z,16.60
2019-06-08T21:52:37.039Z,16.50
2019-06-08T21:55:07.299Z,16.40
2019-06-08T21:57:37.170Z,16.30
2019-06-08T22:00:22.874Z,16.30
2019-06-08T22:02:38.740Z,16.30
2019-06-08T22:05:08.366Z,16.30
2019-06-08T22:07:37.689Z,16.40
2019-06-08T22:10:07.690Z,16.60
2019-06-08T22:12:40.057Z,16.70
2019-06-08T22:15:07.514Z,16.70
2019-06-08T22:17:38.253Z,16.70
2019-06-08T22:20:08.242Z,16.60
2019-06-08T22:22:37.884Z,16.40
2019-06-08T22:25:08.228Z,16.30
2019-06-08T22:27:38.154Z,16.30
2019-06-08T22:30:11.564Z,16.30
2019-06-08T22:32:38.586Z,16.20
2019-06-08T22:35:08.061Z,16.10
2019-06-08T22:37:38.025Z,16.10
2019-06-08T22:40:08.337Z,16.10
2019-06-08T22:42:37.592Z,16.00
2019-06-08T22:45:08.996Z,16.00
2019-06-08T22:47:38.735Z,16.00
2019-06-08T22:50:08.330Z,16.00
2019-06-08T22:52:37.666Z,16.00
2019-06-08T22:55:10.715Z,16.00
2019-06-08T22:57:37.811Z,15.90
2019-06-08T23:00:16.563Z,15.90
2019-06-08T23:02:38.654Z,15.80
2019-06-08T23:05:09.177Z,15.80
2019-06-08T23:07:38.158Z,15.70
2019-06-08T23:10:11.038Z,15.70
2019-06-08T23:12:39.670Z,15.70
2019-06-08T23:15:08.686Z,15.60
2019-06-08T23:17:38.569Z,15.60
2019-06-08T23:20:08.854Z,15.50
2019-06-08T23:22:38.535Z,15.50
2019-06-08T23:25:09.530Z,15.50
2019-06-08T23:27:38.407Z,15.40
2019-06-08T23:30:10.257Z,15.40
2019-06-08T23:32:39.195Z,15.40
2019-06-08T23:35:09.448Z,15.40
2019-06-08T23:37:38.332Z,15.40
2019-06-08T23:40:08.150Z,15.40
2019-06-08T23:42:38.403Z,15.40
2019-06-08T23:45:10.508Z,15.40
2019-06-08T23:47:38.831Z,15.30
2019-06-08T23:50:10.942Z,15.30
2019-06-08T23:52:38.607Z,15.30
2019-06-08T23:55:10.567Z,15.30
2019-06-08T23:57:38.255Z,15.30
